Time;durP1;ratioP1;P1;durP2;ratioP2;P2;SDS_P1;SDS_P2;PMS_P1;PMS_P2;Temp;Humidity;BMP_temperature;BMP_pressure;BME280_temperature;BME280_humidity;BME280_pressure;Samples;Min_cycle;Max_cycle;Signal;HPM_P1;HPM_P2
2022/02/16 00:00:23;;;;;;;8.32;5.57;;;;;;;;;;4998302;28;20030;-83
2022/02/16 00:02:48;;;;;;;7.55;5.32;;;;;;;;;;4981364;28;20030;-80
2022/02/16 00:05:15;;;;;;;6.97;5.07;;;;;;;;;;4982867;28;20034;-84
2022/02/16 00:07:41;;;;;;;7.55;5.57;;;;;;;;;;4985090;28;20031;-88
2022/02/16 00:10:11;;;;;;;8.07;5.13;;;;;;;;;;5000765;28;20034;-83
2022/02/16 00:12:37;;;;;;;9.63;5.55;;;;;;;;;;4983430;28;20080;-84
2022/02/16 00:15:04;;;;;;;7.00;5.55;;;;;;;;;;4984583;28;20509;-85
2022/02/16 00:17:29;;;;;;;7.65;6.13;;;;;;;;;;4982213;28;20076;-80
2022/02/16 00:19:55;;;;;;;8.73;5.90;;;;;;;;;;4991353;28;20125;-80
2022/02/16 00:22:20;;;;;;;7.40;6.47;;;;;;;;;;4987751;28;20479;-84
2022/02/16 00:24:45;;;;;;;7.72;6.35;;;;;;;;;;4986762;28;20047;-80
2022/02/16 00:27:11;;;;;;;8.25;6.47;;;;;;;;;;4978239;28;20160;-80
2022/02/16 00:29:36;;;;;;;9.38;6.00;;;;;;;;;;4982705;28;20057;-83
2022/02/16 00:32:02;;;;;;;8.63;6.35;;;;;;;;;;4980599;28;20034;-84
2022/02/16 00:34:27;;;;;;;9.50;6.20;;;;;;;;;;4995782;28;20034;-81
2022/02/16 00:36:55;;;;;;;7.78;5.70;;;;;;;;;;4981607;28;20030;-81
2022/02/16 00:39:20;;;;;;;9.80;6.50;;;;;;;;;;4980659;28;20034;-87
2022/02/16 00:41:46;;;;;;;9.88;6.25;;;;;;;;;;4980298;28;20033;-85
2022/02/16 00:44:12;;;;;;;9.48;6.95;;;;;;;;;;4984767;28;20450;-82
2022/02/16 00:46:48;;;;;;;9.32;6.30;;;;;;;;;;4790735;28;20597;-84
2022/02/16 00:49:17;;;;;;;7.28;6.40;;;;;;;;;;4655876;28;20046;-81
2022/02/16 00:51:44;;;;;;;7.78;5.93;;;;;;;;;;5002712;28;20034;-84
2022/02/16 00:54:10;;;;;;;6.75;5.43;;;;;;;;;;4998931;28;20034;-81
2022/02/16 00:56:35;;;;;;;8.32;6.05;;;;;;;;;;4988052;28;20469;-89
2022/02/16 00:59:01;;;;;;;8.73;6.18;;;;;;;;;;4984533;28;20038;-89
2022/02/16 01:01:26;;;;;;;7.47;5.95;;;;;;;;;;4986347;28;20022;-81
2022/02/16 01:03:51;;;;;;;7.50;5.50;;;;;;;;;;4976113;28;20058;-84
2022/02/16 01:06:17;;;;;;;7.10;5.30;;;;;;;;;;5004344;28;20026;-81
2022/02/16 01:08:42;;;;;;;9.20;5.70;;;;;;;;;;4983340;28;20026;-80
2022/02/16 01:11:07;;;;;;;7.07;5.50;;;;;;;;;;4984248;28;20030;-84
2022/02/16 01:13:33;;;;;;;7.90;5.50;;;;;;;;;;4985242;28;20049;-83
2022/02/16 01:15:59;;;;;;;7.68;5.10;;;;;;;;;;4982280;28;20026;-81
2022/02/16 01:18:24;;;;;;;8.55;5.57;;;;;;;;;;4983707;28;20038;-88
2022/02/16 01:20:51;;;;;;;7.38;5.18;;;;;;;;;;4984828;28;20038;-80
2022/02/16 01:23:16;;;;;;;8.40;5.82;;;;;;;;;;4985102;28;20485;-84
2022/02/16 01:25:42;;;;;;;9.07;5.85;;;;;;;;;;5003810;28;20037;-84
2022/02/16 01:28:07;;;;;;;9.10;5.40;;;;;;;;;;4987476;28;20050;-84
2022/02/16 01:30:33;;;;;;;8.80;6.13;;;;;;;;;;4986067;28;20042;-88
2022/02/16 01:32:58;;;;;;;7.82;6.15;;;;;;;;;;4987244;28;20030;-84
2022/02/16 01:35:24;;;;;;;7.60;5.55;;;;;;;;;;4987546;28;20026;-90
2022/02/16 01:37:49;;;;;;;8.85;6.00;;;;;;;;;;4983035;28;20369;-84
2022/02/16 01:40:14;;;;;;;10.43;6.50;;;;;;;;;;4981562;28;20030;-89
2022/02/16 01:42:40;;;;;;;8.23;6.13;;;;;;;;;;4982865;28;20027;-84
2022/02/16 01:45:07;;;;;;;9.32;6.40;;;;;;;;;;4987105;28;20031;-79
2022/02/16 01:47:36;;;;;;;10.35;6.47;;;;;;;;;;4984540;28;20026;-81
2022/02/16 01:50:02;;;;;;;9.02;6.60;;;;;;;;;;4987674;28;20129;-80
2022/02/16 01:52:27;;;;;;;9.27;6.28;;;;;;;;;;4982788;28;20113;-80
2022/02/16 01:54:53;;;;;;;8.25;5.93;;;;;;;;;;4989174;28;20049;-84
2022/02/16 01:57:19;;;;;;;8.10;5.97;;;;;;;;;;4983853;28;20598;-84
2022/02/16 01:59:45;;;;;;;8.32;5.82;;;;;;;;;;4987302;28;20053;-83
2022/02/16 02:02:10;;;;;;;7.45;5.78;;;;;;;;;;4984152;28;20072;-83
2022/02/16 02:04:35;;;;;;;8.05;5.47;;;;;;;;;;4987888;28;20038;-84
2022/02/16 02:07:01;;;;;;;6.22;5.13;;;;;;;;;;4984717;28;21429;-84
2022/02/16 02:09:27;;;;;;;7.05;5.25;;;;;;;;;;5005337;28;20448;-80
2022/02/16 02:11:53;;;;;;;7.80;4.97;;;;;;;;;;4987921;28;20034;-83
2022/02/16 02:14:18;;;;;;;7.10;4.80;;;;;;;;;;4987255;28;20037;-89
2022/02/16 02:16:43;;;;;;;5.65;4.78;;;;;;;;;;4985261;28;20027;-84
2022/02/16 02:19:10;;;;;;;6.82;4.60;;;;;;;;;;4989350;28;20418;-84
2022/02/16 02:21:38;;;;;;;6.78;4.72;;;;;;;;;;4989971;28;20034;-89
2022/02/16 02:24:04;;;;;;;6.82;4.25;;;;;;;;;;4988682;28;20027;-84
2022/02/16 02:26:30;;;;;;;5.50;4.13;;;;;;;;;;4995346;28;20073;-84
2022/02/16 02:28:55;;;;;;;5.75;4.32;;;;;;;;;;5004326;28;20058;-84
2022/02/16 02:31:47;;;;;;;6.20;4.10;;;;;;;;;;5006154;28;20410;-88
2022/02/16 02:34:13;;;;;;;8.05;4.05;;;;;;;;;;4983608;28;20038;-84
2022/02/16 02:36:38;;;;;;;7.15;4.35;;;;;;;;;;4986155;28;20041;-84
2022/02/16 02:39:04;;;;;;;5.72;4.07;;;;;;;;;;4986082;28;20177;-87
2022/02/16 02:41:30;;;;;;;6.03;4.03;;;;;;;;;;4985826;28;20027;-90
2022/02/16 02:43:55;;;;;;;6.63;4.03;;;;;;;;;;4984511;28;20085;-87
2022/02/16 02:46:21;;;;;;;5.63;3.92;;;;;;;;;;4988737;28;20029;-84
2022/02/16 02:48:46;;;;;;;6.53;4.00;;;;;;;;;;4984400;28;20041;-89
2022/02/16 02:51:13;;;;;;;6.90;4.30;;;;;;;;;;5004107;28;20038;-87
2022/02/16 02:53:42;;;;;;;7.03;3.97;;;;;;;;;;4987376;28;20471;-81
2022/02/16 02:56:08;;;;;;;7.00;3.97;;;;;;;;;;4991086;28;20118;-89
2022/02/16 02:58:34;;;;;;;5.80;3.97;;;;;;;;;;4987386;28;20133;-88
2022/02/16 03:01:00;;;;;;;6.18;4.00;;;;;;;;;;4990293;28;20026;-81
2022/02/16 03:03:26;;;;;;;6.00;3.83;;;;;;;;;;4986379;28;20454;-80
2022/02/16 03:05:52;;;;;;;6.15;3.97;;;;;;;;;;4988730;28;20040;-84
2022/02/16 03:08:18;;;;;;;5.03;3.65;;;;;;;;;;4998750;28;20467;-84
2022/02/16 03:10:43;;;;;;;6.50;3.72;;;;;;;;;;4985259;28;20084;-84
2022/02/16 03:13:19;;;;;;;5.30;3.65;;;;;;;;;;4992236;28;20026;-84
2022/02/16 03:15:49;;;;;;;5.10;3.40;;;;;;;;;;4986722;28;20027;-81
2022/02/16 03:18:15;;;;;;;5.18;3.30;;;;;;;;;;4991578;28;20028;-81
2022/02/16 03:20:40;;;;;;;6.05;3.55;;;;;;;;;;4986051;28;20026;-84
2022/02/16 03:23:06;;;;;;;7.47;3.88;;;;;;;;;;4984004;28;20601;-81
2022/02/16 03:25:31;;;;;;;5.40;3.28;;;;;;;;;;4987357;28;20130;-84
2022/02/16 03:27:56;;;;;;;4.95;3.20;;;;;;;;;;4985408;28;20070;-91
2022/02/16 03:30:22;;;;;;;3.90;2.90;;;;;;;;;;4991010;28;20085;-85
2022/02/16 03:32:47;;;;;;;4.65;2.88;;;;;;;;;;4990103;28;20034;-89
2022/02/16 03:35:12;;;;;;;4.82;2.78;;;;;;;;;;4986438;28;20109;-83
2022/02/16 03:37:38;;;;;;;5.05;2.90;;;;;;;;;;4987938;28;20034;-84
2022/02/16 03:40:04;;;;;;;6.28;2.72;;;;;;;;;;4983894;28;20479;-88
2022/02/16 03:42:30;;;;;;;5.93;3.28;;;;;;;;;;4985671;28;20020;-84
2022/02/16 03:44:55;;;;;;;3.53;2.45;;;;;;;;;;4989615;28;20072;-84
2022/02/16 03:47:20;;;;;;;4.45;2.67;;;;;;;;;;4990127;28;20498;-83
2022/02/16 03:49:46;;;;;;;4.75;2.80;;;;;;;;;;4985289;28;20084;-85
2022/02/16 03:52:11;;;;;;;5.15;2.92;;;;;;;;;;5006913;28;20030;-80
2022/02/16 03:54:36;;;;;;;5.80;2.75;;;;;;;;;;4992863;28;20392;-84
2022/02/16 03:57:02;;;;;;;4.82;2.85;;;;;;;;;;4985430;28;20022;-83
2022/02/16 03:59:27;;;;;;;4.70;2.67;;;;;;;;;;4987174;28;20524;-84
2022/02/16 04:01:53;;;;;;;3.83;2.50;;;;;;;;;;4982639;28;20026;-83
2022/02/16 04:04:18;;;;;;;4.43;3.00;;;;;;;;;;4987947;28;20165;-80
2022/02/16 04:06:43;;;;;;;4.68;2.60;;;;;;;;;;5003081;28;21003;-84
2022/02/16 04:09:09;;;;;;;4.50;2.80;;;;;;;;;;4986035;28;20031;-80
2022/02/16 04:11:34;;;;;;;3.75;2.50;;;;;;;;;;4999421;28;20023;-81
2022/02/16 04:13:59;;;;;;;4.13;2.88;;;;;;;;;;5004008;28;20037;-89
2022/02/16 04:16:25;;;;;;;4.72;2.95;;;;;;;;;;4987445;28;20105;-84
2022/02/16 04:18:50;;;;;;;4.55;3.00;;;;;;;;;;4986709;28;20077;-89
2022/02/16 04:21:16;;;;;;;4.65;2.80;;;;;;;;;;4988064;28;20038;-89
2022/02/16 04:23:42;;;;;;;4.70;2.72;;;;;;;;;;4977623;28;20049;-81
2022/02/16 04:26:09;;;;;;;4.85;2.97;;;;;;;;;;4985944;28;20030;-81
2022/02/16 04:28:34;;;;;;;3.72;2.80;;;;;;;;;;4983994;28;20826;-84
2022/02/16 04:31:00;;;;;;;4.65;3.28;;;;;;;;;;4997795;28;20053;-84
2022/02/16 04:33:25;;;;;;;4.15;2.83;;;;;;;;;;4985608;28;20084;-89
2022/02/16 04:35:51;;;;;;;4.68;2.80;;;;;;;;;;4986329;28;20026;-89
2022/02/16 04:38:16;;;;;;;4.72;3.17;;;;;;;;;;4987525;28;20022;-84
2022/02/16 04:40:42;;;;;;;5.40;3.22;;;;;;;;;;4989186;28;20057;-84
2022/02/16 04:43:07;;;;;;;4.68;3.38;;;;;;;;;;4987965;28;20033;-90
2022/02/16 04:45:34;;;;;;;4.85;3.45;;;;;;;;;;4987062;28;20058;-81
2022/02/16 04:47:59;;;;;;;5.07;3.42;;;;;;;;;;4989989;28;20483;-89
2022/02/16 04:50:26;;;;;;;5.10;3.30;;;;;;;;;;4989176;28;20170;-85
2022/02/16 04:52:54;;;;;;;4.97;3.35;;;;;;;;;;4987550;28;20033;-81
2022/02/16 04:55:24;;;;;;;5.97;3.50;;;;;;;;;;5004323;28;20510;-89
2022/02/16 04:57:50;;;;;;;5.28;3.50;;;;;;;;;;4986834;28;20026;-81
2022/02/16 05:00:16;;;;;;;5.28;3.58;;;;;;;;;;4992066;28;20068;-89
2022/02/16 05:02:41;;;;;;;4.75;3.33;;;;;;;;;;4986392;28;20076;-88
2022/02/16 05:05:07;;;;;;;5.72;3.40;;;;;;;;;;4984995;28;20432;-83
2022/02/16 05:07:33;;;;;;;5.18;3.22;;;;;;;;;;4978741;28;20081;-83
2022/02/16 05:09:59;;;;;;;4.68;3.22;;;;;;;;;;5002215;28;20022;-89
2022/02/16 05:12:24;;;;;;;5.70;3.30;;;;;;;;;;4988287;28;20026;-90
2022/02/16 05:14:50;;;;;;;5.43;3.05;;;;;;;;;;4983527;28;20096;-84
2022/02/16 05:17:15;;;;;;;4.43;3.05;;;;;;;;;;4987859;28;20019;-84
2022/02/16 05:19:41;;;;;;;5.10;3.30;;;;;;;;;;5002409;28;20037;-84
2022/02/16 05:22:06;;;;;;;4.00;2.78;;;;;;;;;;5001020;28;20069;-84
2022/02/16 05:24:32;;;;;;;5.13;3.22;;;;;;;;;;4983850;28;20037;-83
2022/02/16 05:26:57;;;;;;;3.78;2.70;;;;;;;;;;5001320;28;20026;-81
2022/02/16 05:29:23;;;;;;;4.70;3.22;;;;;;;;;;4984242;28;20055;-87
2022/02/16 05:31:48;;;;;;;4.25;2.75;;;;;;;;;;4987395;28;20057;-81
2022/02/16 05:34:16;;;;;;;3.97;2.80;;;;;;;;;;4988536;28;20030;-83
2022/02/16 05:36:42;;;;;;;5.20;2.83;;;;;;;;;;4989901;28;20033;-90
2022/02/16 05:39:07;;;;;;;3.58;2.75;;;;;;;;;;4988219;28;20022;-92
2022/02/16 05:41:32;;;;;;;3.65;2.47;;;;;;;;;;4990088;28;20057;-81
2022/02/16 05:43:58;;;;;;;3.72;2.25;;;;;;;;;;4988282;28;20039;-84
2022/02/16 05:46:24;;;;;;;3.70;2.55;;;;;;;;;;4989830;28;20022;-90
2022/02/16 05:48:50;;;;;;;3.00;2.25;;;;;;;;;;4995806;28;20488;-84
2022/02/16 05:51:16;;;;;;;3.33;2.22;;;;;;;;;;4989828;28;20026;-90
2022/02/16 05:53:41;;;;;;;3.13;2.35;;;;;;;;;;5005916;28;20026;-89
2022/02/16 05:56:07;;;;;;;3.30;2.22;;;;;;;;;;4990324;28;20038;-84
2022/02/16 05:58:32;;;;;;;3.03;2.10;;;;;;;;;;4987211;28;20040;-87
2022/02/16 06:00:59;;;;;;;2.72;2.05;;;;;;;;;;5007446;28;20069;-87
2022/02/16 06:03:25;;;;;;;3.15;2.30;;;;;;;;;;4986285;28;20026;-84
2022/02/16 06:06:00;;;;;;;3.45;2.35;;;;;;;;;;4988048;28;20031;-91
2022/02/16 06:08:25;;;;;;;3.42;2.38;;;;;;;;;;4986402;28;20187;-86
2022/02/16 06:10:52;;;;;;;2.88;2.15;;;;;;;;;;4987370;28;20035;-84
2022/02/16 06:13:23;;;;;;;3.15;2.33;;;;;;;;;;4987343;28;20030;-81
2022/02/16 06:15:48;;;;;;;3.42;2.20;;;;;;;;;;4983155;28;20294;-91
2022/02/16 06:18:13;;;;;;;4.15;2.47;;;;;;;;;;4984692;28;20125;-84
2022/02/16 06:20:39;;;;;;;3.10;2.30;;;;;;;;;;4989393;28;20088;-83
2022/02/16 06:23:04;;;;;;;2.95;2.00;;;;;;;;;;4986133;28;20057;-84
2022/02/16 06:25:29;;;;;;;3.20;2.22;;;;;;;;;;4996887;28;20057;-86
2022/02/16 06:27:55;;;;;;;3.13;2.10;;;;;;;;;;4981044;28;20030;-84
2022/02/16 06:30:20;;;;;;;3.35;2.28;;;;;;;;;;4983636;28;20025;-83
2022/02/16 06:32:45;;;;;;;3.15;2.15;;;;;;;;;;4984506;28;20037;-90
2022/02/16 06:35:12;;;;;;;3.58;2.30;;;;;;;;;;4985092;28;20494;-83
2022/02/16 06:37:38;;;;;;;3.13;1.95;;;;;;;;;;5005208;28;20497;-83
2022/02/16 06:40:04;;;;;;;4.03;1.90;;;;;;;;;;4984713;28;20026;-81
2022/02/16 06:42:30;;;;;;;4.38;2.10;;;;;;;;;;4984545;28;20026;-86
2022/02/16 06:44:55;;;;;;;3.10;2.10;;;;;;;;;;4982481;28;20069;-84
2022/02/16 06:47:20;;;;;;;2.80;1.92;;;;;;;;;;4982225;28;20125;-83
2022/02/16 06:49:46;;;;;;;2.60;1.80;;;;;;;;;;4978695;28;20101;-84
2022/02/16 06:52:11;;;;;;;2.85;1.77;;;;;;;;;;4979229;28;20026;-87
2022/02/16 06:54:36;;;;;;;2.78;1.65;;;;;;;;;;4984213;28;20479;-88
2022/02/16 06:57:02;;;;;;;3.83;1.90;;;;;;;;;;4983709;28;20031;-84
2022/02/16 06:59:27;;;;;;;3.25;1.90;;;;;;;;;;4995112;28;20442;-84
2022/02/16 07:01:53;;;;;;;3.83;1.90;;;;;;;;;;4983264;28;20549;-84
2022/02/16 07:04:18;;;;;;;2.92;1.70;;;;;;;;;;4977921;28;20026;-81
2022/02/16 07:06:45;;;;;;;2.38;1.63;;;;;;;;;;4983109;28;20034;-83
2022/02/16 07:09:10;;;;;;;2.45;1.50;;;;;;;;;;4985744;28;20044;-83
2022/02/16 07:11:35;;;;;;;2.50;1.60;;;;;;;;;;4985638;28;20138;-80
2022/02/16 07:14:03;;;;;;;2.42;1.60;;;;;;;;;;4988302;28;20118;-89
2022/02/16 07:16:28;;;;;;;2.40;1.63;;;;;;;;;;4984741;28;20065;-80
2022/02/16 07:18:54;;;;;;;3.05;1.80;;;;;;;;;;4986432;28;20062;-90
2022/02/16 07:21:19;;;;;;;2.67;1.90;;;;;;;;;;4986724;28;20027;-83
2022/02/16 07:23:48;;;;;;;2.95;1.70;;;;;;;;;;4991378;28;20030;-80
2022/02/16 07:26:15;;;;;;;2.97;1.88;;;;;;;;;;4980498;28;20690;-83
2022/02/16 07:28:41;;;;;;;2.92;1.83;;;;;;;;;;4990837;28;20045;-91
2022/02/16 07:31:06;;;;;;;2.83;1.92;;;;;;;;;;4991808;28;20038;-83
2022/02/16 07:33:31;;;;;;;3.65;2.10;;;;;;;;;;4998066;28;20042;-83
2022/02/16 07:35:56;;;;;;;2.80;1.90;;;;;;;;;;4988619;28;20027;-80
2022/02/16 07:38:23;;;;;;;2.70;1.92;;;;;;;;;;4989570;28;20030;-81
2022/02/16 07:40:49;;;;;;;2.70;1.70;;;;;;;;;;4982011;28;20073;-80
2022/02/16 07:43:14;;;;;;;3.33;2.38;;;;;;;;;;4990164;28;20424;-84
2022/02/16 07:45:41;;;;;;;3.38;2.03;;;;;;;;;;4980196;28;20514;-87
2022/02/16 07:48:07;;;;;;;3.60;2.17;;;;;;;;;;4983016;28;20022;-88
2022/02/16 07:50:32;;;;;;;3.58;2.20;;;;;;;;;;4985868;28;20034;-90
2022/02/16 07:52:59;;;;;;;3.72;2.45;;;;;;;;;;4986004;28;20077;-81
2022/02/16 07:55:27;;;;;;;3.40;2.45;;;;;;;;;;4984044;28;20042;-82
2022/02/16 07:57:58;;;;;;;3.47;2.30;;;;;;;;;;4986051;28;20034;-83
2022/02/16 08:00:24;;;;;;;3.55;2.65;;;;;;;;;;4991487;28;20049;-83
2022/02/16 08:02:49;;;;;;;3.30;2.28;;;;;;;;;;4991636;28;20048;-83
2022/02/16 08:05:15;;;;;;;3.15;2.25;;;;;;;;;;4987608;28;20022;-90
2022/02/16 08:07:40;;;;;;;3.90;2.45;;;;;;;;;;4986550;28;20018;-81
2022/02/16 08:10:06;;;;;;;3.45;2.38;;;;;;;;;;4985035;28;20026;-90
2022/02/16 08:12:31;;;;;;;3.70;2.40;;;;;;;;;;4986361;28;20026;-81
2022/02/16 08:14:57;;;;;;;3.70;2.58;;;;;;;;;;4984520;28;20038;-90
2022/02/16 08:17:23;;;;;;;3.25;2.35;;;;;;;;;;4987918;28;20038;-83
2022/02/16 08:19:48;;;;;;;3.83;2.70;;;;;;;;;;4984484;28;20121;-83
2022/02/16 08:22:13;;;;;;;4.30;2.72;;;;;;;;;;4989558;28;20113;-83
2022/02/16 08:24:39;;;;;;;4.65;2.90;;;;;;;;;;4984218;28;20047;-90
2022/02/16 08:27:04;;;;;;;4.28;2.78;;;;;;;;;;4987716;28;20121;-90
2022/02/16 08:29:30;;;;;;;4.93;2.95;;;;;;;;;;5001695;28;20049;-80
2022/02/16 08:31:55;;;;;;;5.15;3.10;;;;;;;;;;4982540;28;20061;-83
2022/02/16 08:34:21;;;;;;;4.45;3.08;;;;;;;;;;4984332;28;20066;-80
2022/02/16 08:36:47;;;;;;;4.55;3.08;;;;;;;;;;4987836;28;20030;-82
2022/02/16 08:39:12;;;;;;;5.05;3.40;;;;;;;;;;4983412;28;20052;-81
2022/02/16 08:41:38;;;;;;;4.88;3.40;;;;;;;;;;4984211;28;20026;-83
2022/02/16 08:44:04;;;;;;;6.20;3.50;;;;;;;;;;4998361;28;20038;-83
2022/02/16 08:46:29;;;;;;;5.70;3.45;;;;;;;;;;4985147;28;20026;-83
2022/02/16 08:49:00;;;;;;;5.57;3.70;;;;;;;;;;4990467;28;20088;-83
2022/02/16 08:51:26;;;;;;;4.97;3.63;;;;;;;;;;4987095;28;20109;-81
2022/02/16 08:53:52;;;;;;;6.05;3.70;;;;;;;;;;4988454;28;20030;-88
2022/02/16 08:56:17;;;;;;;5.30;3.60;;;;;;;;;;4985400;28;20131;-83
2022/02/16 08:58:43;;;;;;;5.22;3.28;;;;;;;;;;4984555;28;20407;-83
2022/02/16 09:01:10;;;;;;;5.32;3.58;;;;;;;;;;4994308;28;20030;-80
2022/02/16 09:03:35;;;;;;;5.88;3.40;;;;;;;;;;4984732;28;20089;-86
2022/02/16 09:06:01;;;;;;;4.68;3.33;;;;;;;;;;4994840;28;20030;-89
2022/02/16 09:08:26;;;;;;;4.65;3.28;;;;;;;;;;4982826;28;21505;-85
2022/02/16 09:10:51;;;;;;;7.10;4.00;;;;;;;;;;4983409;28;20030;-81
2022/02/16 09:13:17;;;;;;;4.72;3.25;;;;;;;;;;4987384;28;20034;-89
2022/02/16 09:15:42;;;;;;;5.20;3.70;;;;;;;;;;4986589;28;20554;-83
2022/02/16 09:18:08;;;;;;;5.05;3.67;;;;;;;;;;5003745;28;20160;-90
2022/02/16 09:20:33;;;;;;;4.97;3.38;;;;;;;;;;4986753;28;20037;-84
2022/02/16 09:22:59;;;;;;;4.45;3.38;;;;;;;;;;4986334;28;20022;-81
2022/02/16 09:25:25;;;;;;;4.78;3.60;;;;;;;;;;4985769;28;20022;-84
2022/02/16 09:27:51;;;;;;;4.60;3.60;;;;;;;;;;4983947;28;20042;-83
2022/02/16 09:30:16;;;;;;;5.03;3.78;;;;;;;;;;4985630;28;20667;-83
2022/02/16 09:32:42;;;;;;;4.97;3.70;;;;;;;;;;4983702;28;20113;-82
2022/02/16 09:35:08;;;;;;;4.93;3.72;;;;;;;;;;4980252;28;20077;-89
2022/02/16 09:37:34;;;;;;;5.32;3.92;;;;;;;;;;4982212;28;20030;-84
2022/02/16 09:39:59;;;;;;;5.90;4.18;;;;;;;;;;4985837;28;20034;-89
2022/02/16 09:42:25;;;;;;;5.65;3.50;;;;;;;;;;4985893;28;20199;-84
2022/02/16 09:45:01;;;;;;;5.72;4.10;;;;;;;;;;4985770;28;20045;-84
2022/02/16 09:47:28;;;;;;;5.95;3.42;;;;;;;;;;5001168;28;20057;-89
2022/02/16 09:49:54;;;;;;;4.88;3.65;;;;;;;;;;5002084;28;20045;-84
2022/02/16 09:52:20;;;;;;;5.03;3.67;;;;;;;;;;4982674;28;20471;-84
2022/02/16 09:54:45;;;;;;;6.70;3.78;;;;;;;;;;4984294;28;20049;-84
2022/02/16 09:57:11;;;;;;;5.95;3.85;;;;;;;;;;4984574;28;20074;-89
2022/02/16 09:59:36;;;;;;;6.80;4.05;;;;;;;;;;4983948;28;20110;-82
2022/02/16 10:02:05;;;;;;;7.10;4.43;;;;;;;;;;4983497;28;20037;-90
2022/02/16 10:04:32;;;;;;;8.70;4.28;;;;;;;;;;4990054;28;20471;-84
2022/02/16 10:06:59;;;;;;;10.10;5.10;;;;;;;;;;4984186;28;20690;-84
2022/02/16 10:09:27;;;;;;;7.25;4.90;;;;;;;;;;4987230;28;20030;-81
2022/02/16 10:11:59;;;;;;;7.35;4.93;;;;;;;;;;4991916;28;20552;-85
2022/02/16 10:14:40;;;;;;;9.20;4.65;;;;;;;;;;4990349;28;20034;-84
2022/02/16 10:17:42;;;;;;;9.07;4.68;;;;;;;;;;4992834;28;20498;-90
2022/02/16 10:20:13;;;;;;;6.78;4.38;;;;;;;;;;4913010;29;20044;-81
2022/02/16 10:23:10;;;;;;;7.35;4.47;;;;;;;;;;4925981;28;20066;-83
2022/02/16 10:26:11;;;;;;;7.30;4.35;;;;;;;;;;4990158;28;20033;-82
2022/02/16 10:28:42;;;;;;;8.05;4.22;;;;;;;;;;4916365;29;20086;-82
2022/02/16 10:31:15;;;;;;;7.57;4.57;;;;;;;;;;4921418;29;20629;-84
2022/02/16 10:33:46;;;;;;;9.48;4.72;;;;;;;;;;4951278;28;20031;-84
2022/02/16 10:36:14;;;;;;;10.38;4.60;;;;;;;;;;4952497;28;20507;-84
2022/02/16 10:39:15;;;;;;;7.30;4.88;;;;;;;;;;4949046;28;20047;-90
2022/02/16 10:44:47;;;;;;;8.32;4.82;;;;;;;;;;4952803;28;20117;-89
2022/02/16 10:47:15;;;;;;;8.70;4.93;;;;;;;;;;4952343;28;20058;-82
2022/02/16 10:49:46;;;;;;;8.63;5.07;;;;;;;;;;4954010;28;20057;-84
2022/02/16 10:52:18;;;;;;;10.32;4.60;;;;;;;;;;4950519;28;20093;-84
2022/02/16 10:58:21;;;;;;;10.00;3.90;;;;;;;;;;4887787;29;20033;-85
2022/02/16 11:00:49;;;;;;;7.68;3.88;;;;;;;;;;4966824;28;20031;-83
2022/02/16 11:03:47;;;;;;;11.35;3.85;;;;;;;;;;4964510;28;20046;-84
2022/02/16 11:06:47;;;;;;;6.78;3.88;;;;;;;;;;4965550;28;20042;-85
2022/02/16 11:09:47;;;;;;;9.02;4.00;;;;;;;;;;4933051;28;20046;-83
2022/02/16 11:12:18;;;;;;;9.93;4.25;;;;;;;;;;4950357;28;20031;-82
2022/02/16 11:14:51;;;;;;;12.95;4.57;;;;;;;;;;5063876;23;20053;-88
2022/02/16 11:17:23;;;;;;;8.70;4.45;;;;;;;;;;5028468;28;20028;-83
2022/02/16 11:19:49;;;;;;;11.02;4.88;;;;;;;;;;5027919;28;20032;-83
2022/02/16 11:22:22;;;;;;;9.98;5.75;;;;;;;;;;5042735;28;20043;-84
2022/02/16 11:24:50;;;;;;;8.70;5.18;;;;;;;;;;5024358;28;20078;-84
2022/02/16 11:27:54;;;;;;;9.00;5.85;;;;;;;;;;5028109;28;20036;-90
2022/02/16 11:31:19;;;;;;;11.30;6.13;;;;;;;;;;5026964;28;20505;-81
2022/02/16 11:34:21;;;;;;;12.10;6.97;;;;;;;;;;5018083;28;20071;-85
2022/02/16 11:37:08;;;;;;;;;;;;;;;;;;;;;
2022/02/16 11:39:52;;;;;;;11.18;5.95;;;;;;;;;;5041418;28;20025;-85
2022/02/16 11:42:52;;;;;;;15.05;6.22;;;;;;;;;;5021336;28;20040;-86
2022/02/16 11:45:39;;;;;;;11.18;5.63;;;;;;;;;;5024829;28;20052;-84
2022/02/16 11:49:02;;;;;;;13.18;6.28;;;;;;;;;;5020679;28;20045;-84
2022/02/16 11:51:33;;;;;;;12.55;4.88;;;;;;;;;;5019608;28;20710;-86
2022/02/16 11:54:37;;;;;;;14.38;5.88;;;;;;;;;;5025066;28;20028;-83
2022/02/16 11:57:57;;;;;;;9.70;5.22;;;;;;;;;;5019155;28;20029;-87
2022/02/16 12:00:55;;;;;;;10.75;5.32;;;;;;;;;;4974952;28;20772;-83
2022/02/16 12:03:29;;;;;;;11.13;5.32;;;;;;;;;;5026855;28;20057;-85
2022/02/16 12:06:01;;;;;;;10.05;5.68;;;;;;;;;;5019162;28;20512;-84
2022/02/16 12:11:33;;;;;;;11.82;5.82;;;;;;;;;;5001557;28;20493;-87
2022/02/16 12:14:26;;;;;;;12.65;5.70;;;;;;;;;;5018044;28;20385;-85
2022/02/16 12:16:58;;;;;;;10.52;5.47;;;;;;;;;;4983800;28;20045;-85
2022/02/16 12:19:33;;;;;;;15.43;5.85;;;;;;;;;;4982514;28;20034;-87
2022/02/16 12:22:02;;;;;;;12.13;5.32;;;;;;;;;;4995393;28;20145;-87
2022/02/16 12:24:30;;;;;;;13.40;5.25;;;;;;;;;;4978051;28;20029;-85
2022/02/16 12:27:00;;;;;;;13.30;5.90;;;;;;;;;;4981662;28;20055;-83
2022/02/16 12:29:35;;;;;;;10.65;4.90;;;;;;;;;;4982120;28;20494;-83
2022/02/16 12:32:01;;;;;;;13.70;4.78;;;;;;;;;;4996887;28;20041;-86
2022/02/16 12:34:33;;;;;;;14.73;5.47;;;;;;;;;;4984497;28;20041;-85
2022/02/16 12:37:31;;;;;;;14.75;4.80;;;;;;;;;;4976878;28;20132;-86
2022/02/16 12:40:20;;;;;;;;;;;;;;;;;;;;;
2022/02/16 12:43:32;;;;;;;10.13;5.10;;;;;;;;;;4995833;28;20118;-85
2022/02/16 12:46:03;;;;;;;14.52;5.13;;;;;;;;;;4998210;28;20764;-86
2022/02/16 12:48:32;;;;;;;9.75;4.45;;;;;;;;;;4993975;28;20033;-86
2022/02/16 12:51:05;;;;;;;13.85;4.53;;;;;;;;;;4978691;28;20030;-86
2022/02/16 12:53:37;;;;;;;15.50;5.05;;;;;;;;;;4981062;28;20029;-85
2022/02/16 12:56:10;;;;;;;14.80;4.80;;;;;;;;;;4979288;28;20030;-85
2022/02/16 12:58:39;;;;;;;16.58;4.07;;;;;;;;;;4985383;28;20059;-84
2022/02/16 13:01:04;;;;;;;12.43;4.05;;;;;;;;;;4984784;28;20028;-84
2022/02/16 13:03:36;;;;;;;14.10;4.10;;;;;;;;;;4977951;28;20033;-85
2022/02/16 13:06:12;;;;;;;12.95;3.80;;;;;;;;;;4987947;28;20449;-85
2022/02/16 13:08:38;;;;;;;13.88;4.25;;;;;;;;;;4978482;28;20053;-83
2022/02/16 13:11:07;;;;;;;12.77;3.78;;;;;;;;;;4982713;28;20380;-83
2022/02/16 13:13:38;;;;;;;14.00;4.28;;;;;;;;;;4982218;28;20033;-85
2022/02/16 13:16:39;;;;;;;14.13;4.13;;;;;;;;;;4992752;23;20061;-85
2022/02/16 13:19:07;;;;;;;9.75;3.28;;;;;;;;;;4987316;28;20049;-82
2022/02/16 13:21:38;;;;;;;15.85;4.05;;;;;;;;;;4989170;28;20030;-82
2022/02/16 13:24:09;;;;;;;13.73;4.15;;;;;;;;;;4990143;28;20026;-84
2022/02/16 13:26:42;;;;;;;11.57;4.32;;;;;;;;;;4990673;28;20438;-84
2022/02/16 13:29:11;;;;;;;;;;;;;;;;;;4987186;28;20041;-84
2022/02/16 13:31:39;;;;;;;21.50;5.30;;;;;;;;;;4985334;28;20008;-83
2022/02/16 13:34:11;;;;;;;15.80;4.30;;;;;;;;;;4986702;28;20065;-84
2022/02/16 13:39:43;;;;;;;15.82;4.32;;;;;;;;;;5002851;28;20045;-81
2022/02/16 13:42:18;;;;;;;20.48;4.63;;;;;;;;;;4984990;28;20041;-86
2022/02/16 13:45:13;;;;;;;18.77;3.78;;;;;;;;;;4985531;28;20125;-84
2022/02/16 13:48:41;;;;;;;22.58;4.22;;;;;;;;;;5007239;28;20096;-85
2022/02/16 13:51:19;;;;;;;17.38;4.22;;;;;;;;;;4947849;29;20507;-85
2022/02/16 13:53:47;;;;;;;19.50;4.20;;;;;;;;;;4964372;28;20044;-85
2022/02/16 13:56:19;;;;;;;21.92;3.83;;;;;;;;;;5008630;28;20086;-90
2022/02/16 13:58:45;;;;;;;19.35;4.15;;;;;;;;;;4986592;28;20128;-82
2022/02/16 14:01:20;;;;;;;18.52;4.15;;;;;;;;;;4990886;28;20462;-83
2022/02/16 14:04:17;;;;;;;20.98;3.40;;;;;;;;;;4988601;28;20025;-84
2022/02/16 14:06:45;;;;;;;17.05;3.17;;;;;;;;;;4971107;28;20042;-81
2022/02/16 14:09:16;;;;;;;22.90;4.05;;;;;;;;;;4991405;28;20044;-87
2022/02/16 14:11:48;;;;;;;19.08;3.50;;;;;;;;;;4988121;28;20022;-84
2022/02/16 14:14:18;;;;;;;20.80;3.55;;;;;;;;;;5007952;28;20101;-82
2022/02/16 14:16:46;;;;;;;20.05;4.60;;;;;;;;;;4988891;28;20046;-85
2022/02/16 14:19:24;;;;;;;18.88;2.97;;;;;;;;;;4990500;28;20038;-83
2022/02/16 14:22:18;;;;;;;18.10;3.25;;;;;;;;;;4989992;28;20486;-85
2022/02/16 14:24:50;;;;;;;17.90;3.03;;;;;;;;;;5001865;28;20069;-85
2022/02/16 14:27:19;;;;;;;23.75;3.30;;;;;;;;;;4991345;28;20037;-82
2022/02/16 14:29:51;;;;;;;19.98;3.63;;;;;;;;;;5015340;28;20544;-81
2022/02/16 14:32:19;;;;;;;25.65;3.67;;;;;;;;;;5007006;28;20029;-85
2022/02/16 14:34:52;;;;;;;23.27;4.72;;;;;;;;;;4989694;28;20045;-84
2022/02/16 14:37:20;;;;;;;19.17;3.78;;;;;;;;;;4988932;28;20049;-85
2022/02/16 14:39:46;;;;;;;20.33;3.75;;;;;;;;;;4986479;28;20038;-85
2022/02/16 14:42:12;;;;;;;20.67;3.55;;;;;;;;;;4990699;28;20142;-82
2022/02/16 14:44:43;;;;;;;18.25;3.08;;;;;;;;;;4997175;28;20109;-84
2022/02/16 14:47:13;;;;;;;21.83;3.50;;;;;;;;;;4993698;28;20037;-83
2022/02/16 14:49:42;;;;;;;25.30;4.13;;;;;;;;;;4995542;28;20064;-84
2022/02/16 14:52:09;;;;;;;26.33;5.05;;;;;;;;;;4996621;28;20438;-84
2022/02/16 14:54:37;;;;;;;25.38;4.53;;;;;;;;;;5011928;28;20021;-83
2022/02/16 14:57:03;;;;;;;28.40;4.82;;;;;;;;;;4992019;28;20485;-83
2022/02/16 14:59:29;;;;;;;22.05;4.40;;;;;;;;;;4994100;28;20034;-84
2022/02/16 15:02:01;;;;;;;18.88;3.72;;;;;;;;;;4992417;28;20055;-84
2022/02/16 15:04:36;;;;;;;18.83;3.53;;;;;;;;;;4991706;28;20049;-84
2022/02/16 15:07:03;;;;;;;20.65;4.28;;;;;;;;;;4987696;28;20048;-84
2022/02/16 15:09:29;;;;;;;21.17;3.53;;;;;;;;;;5004852;28;20038;-83